Accueil
METAR-TAF:

METAR-TAF

Aéroports :

Lecce, Italie

latitude: 40-14N, longitude: 018-09E, altitude: 48 m

Observation

Le bulletin a été fait il y a 1 heure et 4 minutes, à 23:55 UTC
Vent 4 kt de nord/nord-ouest
Température 26°C
Humidité 74%
Pression 1014 hPa
Visibilité 10 km ou plus
pas de nuages en-dessous de 1500 mètres et pas de cumulonimbus.

METAR: LIBN 032355Z 33004KT CAVOK 26/21 Q1014 RMK SKC VIS MIN 9999 WIND THR14 33004KT WIND THR32 33004KT BLU

Heure: 02:59 (00:59 UTC)

Prévision

Le bulletin a été fait il y a 10 heures et 59 minutes, à 14:00 UTC
Prévision valable du 03 à 15 UTC au 03 à 24 UTC
Vent 3 kt de direction variable
Visibilité 10 km ou plus
pas de nuages en-dessous de 1500 mètres et pas de cumulonimbus.

TAF: LIBN 031400Z 0315/0324 VRB03KT CAVOK

Observations et prévisions météorologiques de plus de 4000 aéroports (messages METAR et TAF).

Les stations disponibles sont représentées par des disques jaunes et rouges sur la carte.

Passer la souris dessus pour voir le nom de la station.

Cliquer dessus pour voir les observations et prévisions météorologiques.

Pour changer de carte: cliquez sur les boutons verts avec une croix noire pour zoomer, sur le bouton vert avec un tiret pour effectuer un zoom arrière, ou sur les flèches vertes pour les cartes adjacentes.


METAR-TAF: